sensor_id;sensor_type;location;lat;lon;timestamp;P1;durP1;ratioP1;P2;durP2;ratioP2
38909;SDS011;24676;51.360;12.354;2023-02-15T00:01:10;21.25;;;8.13;;
38909;SDS011;24676;51.360;12.354;2023-02-15T00:03:55;18.42;;;6.93;;
38909;SDS011;24676;51.360;12.354;2023-02-15T00:06:40;12.68;;;8.15;;
38909;SDS011;24676;51.360;12.354;2023-02-15T00:09:24;18.45;;;9.18;;
38909;SDS011;24676;51.360;12.354;2023-02-15T00:12:09;18.15;;;8.95;;
38909;SDS011;24676;51.360;12.354;2023-02-15T00:14:53;14.52;;;7.13;;
38909;SDS011;24676;51.360;12.354;2023-02-15T00:17:38;17.42;;;7.60;;
38909;SDS011;24676;51.360;12.354;2023-02-15T00:20:22;16.83;;;8.02;;
38909;SDS011;24676;51.360;12.354;2023-02-15T00:23:07;17.92;;;8.43;;
38909;SDS011;24676;51.360;12.354;2023-02-15T00:25:51;20.33;;;9.05;;
38909;SDS011;24676;51.360;12.354;2023-02-15T00:28:35;16.42;;;7.75;;
38909;SDS011;24676;51.360;12.354;2023-02-15T00:31:19;15.80;;;8.30;;
38909;SDS011;24676;51.360;12.354;2023-02-15T00:34:06;16.35;;;9.18;;
38909;SDS011;24676;51.360;12.354;2023-02-15T00:37:00;15.00;;;8.15;;
38909;SDS011;24676;51.360;12.354;2023-02-15T00:39:45;14.60;;;7.53;;
38909;SDS011;24676;51.360;12.354;2023-02-15T00:42:29;17.33;;;7.22;;
38909;SDS011;24676;51.360;12.354;2023-02-15T00:45:13;16.73;;;8.88;;
38909;SDS011;24676;51.360;12.354;2023-02-15T00:47:58;10.77;;;7.35;;
38909;SDS011;24676;51.360;12.354;2023-02-15T00:50:44;29.98;;;8.48;;
38909;SDS011;24676;51.360;12.354;2023-02-15T00:53:30;12.70;;;7.07;;
38909;SDS011;24676;51.360;12.354;2023-02-15T00:56:14;9.23;;;6.70;;
38909;SDS011;24676;51.360;12.354;2023-02-15T00:58:58;14.27;;;8.82;;
38909;SDS011;24676;51.360;12.354;2023-02-15T01:01:42;11.95;;;6.60;;
38909;SDS011;24676;51.360;12.354;2023-02-15T01:09:54;19.73;;;9.93;;
38909;SDS011;24676;51.360;12.354;2023-02-15T01:12:38;13.77;;;6.60;;
38909;SDS011;24676;51.360;12.354;2023-02-15T01:15:23;12.20;;;7.43;;
38909;SDS011;24676;51.360;12.354;2023-02-15T01:18:08;16.70;;;9.13;;
38909;SDS011;24676;51.360;12.354;2023-02-15T01:20:53;22.95;;;8.60;;
38909;SDS011;24676;51.360;12.354;2023-02-15T01:40:03;16.70;;;7.40;;
38909;SDS011;24676;51.360;12.354;2023-02-15T01:45:36;8.73;;;6.10;;
38909;SDS011;24676;51.360;12.354;2023-02-15T01:48:24;17.80;;;6.90;;
38909;SDS011;24676;51.360;12.354;2023-02-15T01:51:11;22.27;;;6.82;;
38909;SDS011;24676;51.360;12.354;2023-02-15T01:53:59;15.10;;;6.03;;
38909;SDS011;24676;51.360;12.354;2023-02-15T01:56:54;12.38;;;6.15;;
38909;SDS011;24676;51.360;12.354;2023-02-15T01:59:45;16.10;;;7.30;;
38909;SDS011;24676;51.360;12.354;2023-02-15T02:02:36;9.05;;;5.95;;
38909;SDS011;24676;51.360;12.354;2023-02-15T02:05:20;13.82;;;5.20;;
38909;SDS011;24676;51.360;12.354;2023-02-15T02:08:04;12.35;;;6.63;;
38909;SDS011;24676;51.360;12.354;2023-02-15T02:10:50;19.35;;;6.15;;
38909;SDS011;24676;51.360;12.354;2023-02-15T02:13:34;16.27;;;7.80;;
38909;SDS011;24676;51.360;12.354;2023-02-15T02:16:28;13.35;;;7.55;;
38909;SDS011;24676;51.360;12.354;2023-02-15T02:22:40;11.60;;;6.72;;
38909;SDS011;24676;51.360;12.354;2023-02-15T02:25:46;20.92;;;6.93;;
38909;SDS011;24676;51.360;12.354;2023-02-15T02:29:06;9.82;;;4.22;;
38909;SDS011;24676;51.360;12.354;2023-02-15T02:35:56;14.13;;;6.28;;
38909;SDS011;24676;51.360;12.354;2023-02-15T02:38:29;17.20;;;7.03;;
38909;SDS011;24676;51.360;12.354;2023-02-15T02:41:40;12.20;;;6.82;;
38909;SDS011;24676;51.360;12.354;2023-02-15T02:44:28;12.80;;;7.55;;
38909;SDS011;24676;51.360;12.354;2023-02-15T02:47:26;17.83;;;6.85;;
38909;SDS011;24676;51.360;12.354;2023-02-15T02:50:17;12.60;;;4.40;;
38909;SDS011;24676;51.360;12.354;2023-02-15T02:53:06;12.90;;;6.43;;
38909;SDS011;24676;51.360;12.354;2023-02-15T02:55:52;18.38;;;7.78;;
38909;SDS011;24676;51.360;12.354;2023-02-15T02:58:41;14.10;;;6.38;;
38909;SDS011;24676;51.360;12.354;2023-02-15T03:01:44;16.45;;;7.57;;
38909;SDS011;24676;51.360;12.354;2023-02-15T03:04:35;12.97;;;6.37;;
38909;SDS011;24676;51.360;12.354;2023-02-15T03:07:24;11.97;;;6.87;;
38909;SDS011;24676;51.360;12.354;2023-02-15T03:10:12;10.48;;;6.07;;
38909;SDS011;24676;51.360;12.354;2023-02-15T03:12:57;11.30;;;5.40;;
38909;SDS011;24676;51.360;12.354;2023-02-15T03:15:41;9.82;;;4.80;;
38909;SDS011;24676;51.360;12.354;2023-02-15T03:18:46;16.23;;;7.55;;
38909;SDS011;24676;51.360;12.354;2023-02-15T03:21:45;9.35;;;5.22;;
38909;SDS011;24676;51.360;12.354;2023-02-15T03:24:44;16.75;;;6.05;;
38909;SDS011;24676;51.360;12.354;2023-02-15T03:27:38;9.95;;;5.85;;
38909;SDS011;24676;51.360;12.354;2023-02-15T03:30:27;7.18;;;4.07;;
38909;SDS011;24676;51.360;12.354;2023-02-15T03:33:12;12.98;;;7.40;;
38909;SDS011;24676;51.360;12.354;2023-02-15T03:36:02;15.80;;;6.78;;
38909;SDS011;24676;51.360;12.354;2023-02-15T03:45:11;15.73;;;6.35;;
38909;SDS011;24676;51.360;12.354;2023-02-15T03:48:01;6.68;;;3.90;;
38909;SDS011;24676;51.360;12.354;2023-02-15T03:50:46;15.57;;;5.70;;
38909;SDS011;24676;51.360;12.354;2023-02-15T03:53:50;11.43;;;6.25;;
38909;SDS011;24676;51.360;12.354;2023-02-15T03:56:37;8.63;;;5.35;;
38909;SDS011;24676;51.360;12.354;2023-02-15T03:59:25;11.90;;;5.13;;
38909;SDS011;24676;51.360;12.354;2023-02-15T04:02:29;14.18;;;5.93;;
38909;SDS011;24676;51.360;12.354;2023-02-15T04:05:25;14.10;;;6.07;;
38909;SDS011;24676;51.360;12.354;2023-02-15T04:08:09;7.00;;;4.68;;
38909;SDS011;24676;51.360;12.354;2023-02-15T04:10:54;10.02;;;6.05;;
38909;SDS011;24676;51.360;12.354;2023-02-15T04:13:39;12.38;;;5.47;;
38909;SDS011;24676;51.360;12.354;2023-02-15T04:16:24;10.85;;;4.07;;
38909;SDS011;24676;51.360;12.354;2023-02-15T04:19:08;15.70;;;5.93;;
38909;SDS011;24676;51.360;12.354;2023-02-15T04:22:11;12.05;;;6.43;;
38909;SDS011;24676;51.360;12.354;2023-02-15T04:25:14;16.30;;;6.85;;
38909;SDS011;24676;51.360;12.354;2023-02-15T04:27:58;9.57;;;4.60;;
38909;SDS011;24676;51.360;12.354;2023-02-15T04:30:43;7.75;;;4.82;;
38909;SDS011;24676;51.360;12.354;2023-02-15T04:33:27;9.32;;;5.00;;
38909;SDS011;24676;51.360;12.354;2023-02-15T04:36:11;8.95;;;4.18;;
38909;SDS011;24676;51.360;12.354;2023-02-15T04:38:55;15.82;;;5.10;;
38909;SDS011;24676;51.360;12.354;2023-02-15T04:41:39;13.57;;;6.20;;
38909;SDS011;24676;51.360;12.354;2023-02-15T04:44:24;14.82;;;6.25;;
38909;SDS011;24676;51.360;12.354;2023-02-15T04:47:08;9.77;;;5.30;;
38909;SDS011;24676;51.360;12.354;2023-02-15T04:49:52;8.55;;;5.28;;
38909;SDS011;24676;51.360;12.354;2023-02-15T04:52:36;10.40;;;5.38;;
38909;SDS011;24676;51.360;12.354;2023-02-15T04:55:20;7.45;;;4.50;;
38909;SDS011;24676;51.360;12.354;2023-02-15T04:58:04;11.95;;;4.47;;
38909;SDS011;24676;51.360;12.354;2023-02-15T05:00:49;7.93;;;4.25;;
38909;SDS011;24676;51.360;12.354;2023-02-15T05:03:33;8.65;;;5.45;;
38909;SDS011;24676;51.360;12.354;2023-02-15T05:06:17;12.40;;;5.78;;
38909;SDS011;24676;51.360;12.354;2023-02-15T05:09:01;16.42;;;4.55;;
38909;SDS011;24676;51.360;12.354;2023-02-15T05:11:45;10.07;;;4.82;;
38909;SDS011;24676;51.360;12.354;2023-02-15T05:14:29;7.63;;;4.00;;
38909;SDS011;24676;51.360;12.354;2023-02-15T05:17:13;8.45;;;5.55;;
38909;SDS011;24676;51.360;12.354;2023-02-15T05:19:57;10.80;;;4.90;;
38909;SDS011;24676;51.360;12.354;2023-02-15T05:22:41;13.35;;;4.97;;
38909;SDS011;24676;51.360;12.354;2023-02-15T05:25:25;11.07;;;5.65;;
38909;SDS011;24676;51.360;12.354;2023-02-15T05:33:58;9.75;;;4.63;;
38909;SDS011;24676;51.360;12.354;2023-02-15T05:44:55;6.50;;;4.70;;
38909;SDS011;24676;51.360;12.354;2023-02-15T05:47:39;8.75;;;4.68;;
38909;SDS011;24676;51.360;12.354;2023-02-15T05:50:24;5.65;;;4.10;;
38909;SDS011;24676;51.360;12.354;2023-02-15T05:53:08;13.65;;;6.40;;
38909;SDS011;24676;51.360;12.354;2023-02-15T05:55:52;10.38;;;5.55;;
38909;SDS011;24676;51.360;12.354;2023-02-15T05:58:38;10.27;;;3.95;;
38909;SDS011;24676;51.360;12.354;2023-02-15T06:01:24;9.35;;;6.20;;
38909;SDS011;24676;51.360;12.354;2023-02-15T06:04:08;17.50;;;5.70;;
38909;SDS011;24676;51.360;12.354;2023-02-15T06:06:51;12.20;;;5.57;;
38909;SDS011;24676;51.360;12.354;2023-02-15T06:09:35;7.50;;;5.07;;
38909;SDS011;24676;51.360;12.354;2023-02-15T06:12:19;10.90;;;5.97;;
38909;SDS011;24676;51.360;12.354;2023-02-15T06:15:04;8.50;;;5.45;;
38909;SDS011;24676;51.360;12.354;2023-02-15T06:17:48;8.45;;;3.95;;
38909;SDS011;24676;51.360;12.354;2023-02-15T06:20:32;6.32;;;4.03;;
38909;SDS011;24676;51.360;12.354;2023-02-15T06:23:17;11.48;;;6.05;;
38909;SDS011;24676;51.360;12.354;2023-02-15T06:26:01;9.52;;;4.55;;
38909;SDS011;24676;51.360;12.354;2023-02-15T06:28:45;7.38;;;4.25;;
38909;SDS011;24676;51.360;12.354;2023-02-15T06:31:29;14.48;;;4.35;;
38909;SDS011;24676;51.360;12.354;2023-02-15T06:34:13;13.82;;;8.18;;
38909;SDS011;24676;51.360;12.354;2023-02-15T06:36:58;8.70;;;6.93;;
38909;SDS011;24676;51.360;12.354;2023-02-15T06:39:42;11.48;;;5.55;;
38909;SDS011;24676;51.360;12.354;2023-02-15T06:42:27;11.32;;;6.47;;
38909;SDS011;24676;51.360;12.354;2023-02-15T06:45:12;11.70;;;4.93;;
38909;SDS011;24676;51.360;12.354;2023-02-15T06:47:56;17.35;;;5.03;;
38909;SDS011;24676;51.360;12.354;2023-02-15T06:53:25;8.45;;;4.28;;
38909;SDS011;24676;51.360;12.354;2023-02-15T06:56:12;6.40;;;3.95;;
38909;SDS011;24676;51.360;12.354;2023-02-15T06:58:56;11.90;;;4.57;;
38909;SDS011;24676;51.360;12.354;2023-02-15T07:01:41;10.07;;;4.15;;
38909;SDS011;24676;51.360;12.354;2023-02-15T07:04:25;8.88;;;6.28;;
38909;SDS011;24676;51.360;12.354;2023-02-15T07:07:10;13.90;;;4.20;;
38909;SDS011;24676;51.360;12.354;2023-02-15T07:09:55;7.70;;;4.80;;
38909;SDS011;24676;51.360;12.354;2023-02-15T07:12:39;6.65;;;4.78;;
38909;SDS011;24676;51.360;12.354;2023-02-15T07:15:26;11.10;;;4.30;;
38909;SDS011;24676;51.360;12.354;2023-02-15T07:18:10;10.00;;;4.10;;
38909;SDS011;24676;51.360;12.354;2023-02-15T07:23:39;9.85;;;4.40;;
38909;SDS011;24676;51.360;12.354;2023-02-15T07:26:24;8.63;;;4.25;;
38909;SDS011;24676;51.360;12.354;2023-02-15T07:29:09;14.10;;;4.13;;
38909;SDS011;24676;51.360;12.354;2023-02-15T07:31:53;8.20;;;3.42;;
38909;SDS011;24676;51.360;12.354;2023-02-15T07:34:37;5.50;;;3.28;;
38909;SDS011;24676;51.360;12.354;2023-02-15T07:56:35;12.27;;;5.43;;
38909;SDS011;24676;51.360;12.354;2023-02-15T08:02:05;9.52;;;6.70;;
38909;SDS011;24676;51.360;12.354;2023-02-15T10:13:41;2.70;;;2.50;;
38909;SDS011;24676;51.360;12.354;2023-02-15T10:19:36;4.57;;;3.10;;
38909;SDS011;24676;51.360;12.354;2023-02-15T10:23:00;6.35;;;3.08;;
38909;SDS011;24676;51.360;12.354;2023-02-15T11:03:49;4.22;;;2.35;;
38909;SDS011;24676;51.360;12.354;2023-02-15T11:06:25;5.18;;;3.50;;
38909;SDS011;24676;51.360;12.354;2023-02-15T11:09:11;2.53;;;2.33;;
38909;SDS011;24676;51.360;12.354;2023-02-15T11:11:58;1.88;;;1.77;;
38909;SDS011;24676;51.360;12.354;2023-02-15T11:29:00;5.07;;;3.05;;
38909;SDS011;24676;51.360;12.354;2023-02-15T11:37:55;4.35;;;3.15;;
38909;SDS011;24676;51.360;12.354;2023-02-15T11:41:07;5.72;;;2.63;;
38909;SDS011;24676;51.360;12.354;2023-02-15T11:52:17;5.03;;;3.10;;
38909;SDS011;24676;51.360;12.354;2023-02-15T12:03:28;5.03;;;2.88;;
38909;SDS011;24676;51.360;12.354;2023-02-15T12:06:16;3.10;;;2.42;;
38909;SDS011;24676;51.360;12.354;2023-02-15T12:15:00;3.38;;;2.33;;
38909;SDS011;24676;51.360;12.354;2023-02-15T12:20:42;3.13;;;2.60;;
38909;SDS011;24676;51.360;12.354;2023-02-15T12:23:27;2.58;;;2.38;;
38909;SDS011;24676;51.360;12.354;2023-02-15T12:26:12;6.35;;;2.65;;
38909;SDS011;24676;51.360;12.354;2023-02-15T12:29:00;4.35;;;2.67;;
38909;SDS011;24676;51.360;12.354;2023-02-15T12:31:50;5.43;;;2.78;;
38909;SDS011;24676;51.360;12.354;2023-02-15T12:34:36;7.30;;;3.40;;
38909;SDS011;24676;51.360;12.354;2023-02-15T12:37:28;4.38;;;3.97;;
38909;SDS011;24676;51.360;12.354;2023-02-15T12:40:20;4.65;;;3.45;;
38909;SDS011;24676;51.360;12.354;2023-02-15T12:43:24;4.70;;;2.75;;
38909;SDS011;24676;51.360;12.354;2023-02-15T12:46:23;2.85;;;2.30;;
38909;SDS011;24676;51.360;12.354;2023-02-15T12:57:29;4.53;;;2.22;;
38909;SDS011;24676;51.360;12.354;2023-02-15T13:03:02;2.55;;;2.30;;
38909;SDS011;24676;51.360;12.354;2023-02-15T13:08:54;2.60;;;1.77;;
38909;SDS011;24676;51.360;12.354;2023-02-15T13:11:48;5.05;;;2.30;;
38909;SDS011;24676;51.360;12.354;2023-02-15T13:14:32;1.65;;;1.55;;
38909;SDS011;24676;51.360;12.354;2023-02-15T13:17:18;2.05;;;1.70;;
38909;SDS011;24676;51.360;12.354;2023-02-15T13:37:08;2.30;;;1.67;;
38909;SDS011;24676;51.360;12.354;2023-02-15T13:40:18;3.08;;;1.85;;
38909;SDS011;24676;51.360;12.354;2023-02-15T13:49:43;2.63;;;1.30;;
38909;SDS011;24676;51.360;12.354;2023-02-15T14:16:31;3.58;;;1.92;;
38909;SDS011;24676;51.360;12.354;2023-02-15T14:22:18;2.00;;;1.80;;
38909;SDS011;24676;51.360;12.354;2023-02-15T14:28:14;3.10;;;1.85;;
38909;SDS011;24676;51.360;12.354;2023-02-15T14:31:06;1.45;;;1.00;;
38909;SDS011;24676;51.360;12.354;2023-02-15T14:33:55;3.80;;;1.80;;
38909;SDS011;24676;51.360;12.354;2023-02-15T14:36:40;1.65;;;1.35;;
38909;SDS011;24676;51.360;12.354;2023-02-15T14:42:55;1.07;;;0.97;;
38909;SDS011;24676;51.360;12.354;2023-02-15T14:45:53;1.58;;;1.23;;
38909;SDS011;24676;51.360;12.354;2023-02-15T14:48:48;2.03;;;1.17;;
38909;SDS011;24676;51.360;12.354;2023-02-15T15:49:32;1.17;;;1.08;;
38909;SDS011;24676;51.360;12.354;2023-02-15T15:52:18;6.30;;;1.95;;
38909;SDS011;24676;51.360;12.354;2023-02-15T15:55:12;2.10;;;1.50;;
38909;SDS011;24676;51.360;12.354;2023-02-15T15:58:02;2.05;;;1.83;;
38909;SDS011;24676;51.360;12.354;2023-02-15T16:00:55;1.60;;;1.40;;
38909;SDS011;24676;51.360;12.354;2023-02-15T16:03:51;2.55;;;1.05;;
38909;SDS011;24676;51.360;12.354;2023-02-15T16:06:37;2.28;;;2.10;;
38909;SDS011;24676;51.360;12.354;2023-02-15T16:09:24;3.15;;;1.55;;
38909;SDS011;24676;51.360;12.354;2023-02-15T16:12:13;4.53;;;1.88;;
38909;SDS011;24676;51.360;12.354;2023-02-15T16:15:02;7.93;;;1.75;;
38909;SDS011;24676;51.360;12.354;2023-02-15T16:17:55;3.33;;;1.50;;
38909;SDS011;24676;51.360;12.354;2023-02-15T16:20:41;5.85;;;2.20;;
38909;SDS011;24676;51.360;12.354;2023-02-15T16:40:49;2.50;;;1.90;;
38909;SDS011;24676;51.360;12.354;2023-02-15T17:28:16;2.42;;;2.22;;
38909;SDS011;24676;51.360;12.354;2023-02-15T17:33:51;4.30;;;2.80;;
38909;SDS011;24676;51.360;12.354;2023-02-15T17:36:38;3.40;;;2.20;;
38909;SDS011;24676;51.360;12.354;2023-02-15T18:41:49;3.85;;;2.75;;
38909;SDS011;24676;51.360;12.354;2023-02-15T18:44:34;4.65;;;3.47;;
38909;SDS011;24676;51.360;12.354;2023-02-15T18:47:18;6.53;;;4.30;;
38909;SDS011;24676;51.360;12.354;2023-02-15T18:50:03;4.22;;;3.35;;
38909;SDS011;24676;51.360;12.354;2023-02-15T18:52:48;8.55;;;3.47;;
38909;SDS011;24676;51.360;12.354;2023-02-15T18:55:34;6.65;;;3.40;;
38909;SDS011;24676;51.360;12.354;2023-02-15T18:58:19;7.82;;;4.47;;
38909;SDS011;24676;51.360;12.354;2023-02-15T19:01:06;6.40;;;4.63;;
38909;SDS011;24676;51.360;12.354;2023-02-15T19:03:59;7.55;;;3.67;;
38909;SDS011;24676;51.360;12.354;2023-02-15T19:06:44;8.68;;;3.85;;
38909;SDS011;24676;51.360;12.354;2023-02-15T19:09:30;8.05;;;4.40;;
38909;SDS011;24676;51.360;12.354;2023-02-15T19:12:15;9.90;;;4.53;;
38909;SDS011;24676;51.360;12.354;2023-02-15T19:15:02;4.22;;;3.53;;
38909;SDS011;24676;51.360;12.354;2023-02-15T19:28:52;6.23;;;3.83;;
38909;SDS011;24676;51.360;12.354;2023-02-15T19:37:05;7.05;;;4.00;;
38909;SDS011;24676;51.360;12.354;2023-02-15T19:39:58;6.88;;;3.25;;
38909;SDS011;24676;51.360;12.354;2023-02-15T19:42:44;8.52;;;4.43;;
38909;SDS011;24676;51.360;12.354;2023-02-15T19:45:29;6.25;;;3.83;;
38909;SDS011;24676;51.360;12.354;2023-02-15T19:48:14;6.18;;;4.05;;
38909;SDS011;24676;51.360;12.354;2023-02-15T19:50:59;7.55;;;4.50;;
38909;SDS011;24676;51.360;12.354;2023-02-15T19:53:44;4.40;;;3.50;;
38909;SDS011;24676;51.360;12.354;2023-02-15T19:56:30;5.70;;;4.55;;
38909;SDS011;24676;51.360;12.354;2023-02-15T19:59:21;4.82;;;4.15;;
38909;SDS011;24676;51.360;12.354;2023-02-15T20:02:11;6.75;;;2.80;;
38909;SDS011;24676;51.360;12.354;2023-02-15T20:04:57;9.52;;;6.03;;
38909;SDS011;24676;51.360;12.354;2023-02-15T20:07:42;7.10;;;4.68;;
38909;SDS011;24676;51.360;12.354;2023-02-15T20:10:29;8.75;;;5.30;;
38909;SDS011;24676;51.360;12.354;2023-02-15T20:13:14;6.88;;;5.53;;
38909;SDS011;24676;51.360;12.354;2023-02-15T20:16:00;7.78;;;4.50;;
38909;SDS011;24676;51.360;12.354;2023-02-15T20:18:48;9.45;;;4.50;;
38909;SDS011;24676;51.360;12.354;2023-02-15T20:21:32;9.52;;;4.25;;
38909;SDS011;24676;51.360;12.354;2023-02-15T20:35:24;7.82;;;4.10;;
38909;SDS011;24676;51.360;12.354;2023-02-15T20:38:32;11.10;;;5.07;;
38909;SDS011;24676;51.360;12.354;2023-02-15T20:41:16;4.82;;;3.83;;
38909;SDS011;24676;51.360;12.354;2023-02-15T20:44:20;9.65;;;5.47;;
38909;SDS011;24676;51.360;12.354;2023-02-15T20:47:12;10.15;;;4.22;;
38909;SDS011;24676;51.360;12.354;2023-02-15T20:49:56;4.90;;;3.58;;
38909;SDS011;24676;51.360;12.354;2023-02-15T20:52:41;6.07;;;3.40;;
38909;SDS011;24676;51.360;12.354;2023-02-15T21:54:17;9.68;;;4.13;;
38909;SDS011;24676;51.360;12.354;2023-02-15T21:57:03;13.95;;;4.88;;
38909;SDS011;24676;51.360;12.354;2023-02-15T23:03:43;7.93;;;3.42;;
38909;SDS011;24676;51.360;12.354;2023-02-15T23:06:27;8.25;;;4.18;;
38909;SDS011;24676;51.360;12.354;2023-02-15T23:09:11;6.20;;;2.50;;
